createdAt,value
2023-02-28T00:01:31.725Z,9.70
2023-02-28T00:03:59.105Z,9.77
2023-02-28T00:06:25.943Z,10.38
2023-02-28T00:08:53.040Z,8.90
2023-02-28T00:11:19.919Z,10.25
2023-02-28T00:13:47.620Z,10.38
2023-02-28T00:16:20.429Z,10.05
2023-02-28T00:18:48.664Z,9.70
2023-02-28T00:21:16.300Z,9.82
2023-02-28T00:23:43.580Z,10.43
2023-02-28T00:26:10.356Z,10.27
2023-02-28T00:28:37.477Z,9.88
2023-02-28T00:31:04.447Z,10.55
2023-02-28T00:33:31.571Z,10.88
2023-02-28T00:36:09.165Z,9.55
2023-02-28T00:38:36.335Z,10.65
2023-02-28T00:41:06.174Z,11.07
2023-02-28T00:43:34.464Z,9.68
2023-02-28T00:46:01.593Z,10.68
2023-02-28T00:48:28.738Z,9.63
2023-02-28T00:50:55.572Z,10.13
2023-02-28T00:53:23.087Z,10.20
2023-02-28T00:55:50.904Z,9.90
2023-02-28T00:58:18.027Z,10.45
2023-02-28T01:00:48.958Z,10.45
2023-02-28T01:03:17.901Z,10.15
2023-02-28T01:05:44.787Z,10.30
2023-02-28T01:08:12.047Z,9.85
2023-02-28T01:10:39.345Z,10.20
2023-02-28T01:13:06.414Z,9.95
2023-02-28T01:15:33.525Z,8.98
2023-02-28T01:18:00.593Z,10.00
2023-02-28T01:20:27.366Z,10.77
2023-02-28T01:22:54.419Z,9.38
2023-02-28T01:25:21.155Z,9.93
2023-02-28T01:27:48.280Z,9.65
2023-02-28T01:30:15.512Z,9.65
2023-02-28T01:32:42.584Z,9.77
2023-02-28T01:35:09.555Z,10.15
2023-02-28T01:37:36.983Z,9.10
2023-02-28T01:40:04.277Z,10.07
2023-02-28T01:42:31.339Z,10.57
2023-02-28T01:45:04.330Z,10.05
2023-02-28T01:47:34.322Z,9.40
2023-02-28T01:50:02.174Z,8.93
2023-02-28T01:52:29.436Z,9.02
2023-02-28T01:54:56.929Z,9.07
2023-02-28T01:57:26.463Z,9.93
2023-02-28T01:59:59.521Z,9.60
2023-02-28T02:02:26.736Z,9.52
2023-02-28T02:05:00.000Z,9.68
2023-02-28T02:07:27.115Z,9.70
2023-02-28T02:10:17.039Z,9.15
2023-02-28T02:13:15.155Z,8.73
2023-02-28T02:15:47.741Z,9.55
2023-02-28T02:18:27.064Z,9.25
2023-02-28T02:20:56.740Z,10.73
2023-02-28T02:23:42.520Z,9.70
2023-02-28T02:26:28.146Z,10.70
2023-02-28T02:29:08.279Z,9.93
2023-02-28T02:31:43.294Z,8.98
2023-02-28T02:36:41.462Z,9.30
2023-02-28T02:39:17.822Z,9.75
2023-02-28T02:41:53.151Z,8.70
2023-02-28T02:44:28.505Z,9.85
2023-02-28T02:47:22.007Z,9.32
2023-02-28T02:49:53.400Z,9.65
2023-02-28T02:52:23.351Z,10.07
2023-02-28T02:54:50.893Z,8.50
2023-02-28T02:57:41.550Z,9.15
2023-02-28T03:00:09.520Z,9.18
2023-02-28T03:02:37.399Z,9.45
2023-02-28T03:05:07.720Z,9.43
2023-02-28T03:07:34.435Z,8.80
2023-02-28T03:10:02.315Z,9.07
2023-02-28T03:12:35.096Z,9.43
2023-02-28T03:15:09.233Z,9.82
2023-02-28T03:17:35.921Z,8.93
2023-02-28T03:20:17.940Z,8.75
2023-02-28T03:22:50.671Z,7.97
2023-02-28T03:25:32.658Z,9.43
2023-02-28T03:28:02.286Z,9.80
2023-02-28T03:30:55.717Z,9.70
2023-02-28T03:33:43.159Z,8.90
2023-02-28T03:36:14.087Z,9.77
2023-02-28T03:38:40.844Z,8.85
2023-02-28T03:41:13.272Z,9.32
2023-02-28T03:43:41.418Z,9.05
2023-02-28T03:46:11.475Z,9.82
2023-02-28T03:48:45.257Z,9.20
2023-02-28T03:51:15.257Z,9.38
2023-02-28T03:54:03.882Z,9.80
2023-02-28T03:56:34.144Z,9.45
2023-02-28T03:59:21.683Z,9.45
2023-02-28T04:01:49.608Z,8.88
2023-02-28T04:04:17.137Z,8.98
2023-02-28T04:06:44.362Z,8.63
2023-02-28T04:11:46.977Z,10.27
2023-02-28T04:14:13.786Z,9.13
2023-02-28T04:16:41.928Z,9.38
2023-02-28T04:19:09.544Z,8.77
2023-02-28T04:21:40.085Z,9.35
2023-02-28T04:24:08.453Z,9.05
2023-02-28T04:26:37.037Z,9.00
2023-02-28T04:29:05.249Z,9.90
2023-02-28T04:31:33.056Z,9.85
2023-02-28T04:34:00.275Z,9.52
2023-02-28T04:36:27.594Z,9.80
2023-02-28T04:38:54.566Z,10.32
2023-02-28T04:41:21.938Z,10.32
2023-02-28T04:43:48.662Z,10.57
2023-02-28T04:46:16.359Z,10.95
2023-02-28T04:48:44.720Z,10.88
2023-02-28T04:51:13.149Z,10.25
2023-02-28T04:53:40.743Z,10.02
2023-02-28T04:56:08.282Z,10.93
2023-02-28T04:58:35.420Z,11.40
2023-02-28T05:01:18.221Z,11.23
2023-02-28T05:03:45.064Z,10.93
2023-02-28T05:06:12.651Z,10.57
2023-02-28T05:08:39.787Z,11.27
2023-02-28T05:11:26.771Z,11.45
2023-02-28T05:13:54.716Z,10.93
2023-02-28T05:16:21.995Z,11.15
2023-02-28T05:18:48.908Z,11.38
2023-02-28T05:21:25.585Z,11.68
2023-02-28T05:23:53.483Z,12.35
2023-02-28T05:26:20.760Z,11.00
2023-02-28T05:28:47.516Z,11.48
2023-02-28T05:31:14.850Z,12.32
2023-02-28T05:33:41.630Z,12.15
2023-02-28T05:36:09.013Z,10.70
2023-02-28T05:38:37.830Z,12.23
2023-02-28T05:41:12.451Z,12.07
2023-02-28T05:43:39.246Z,13.82
2023-02-28T05:46:07.449Z,13.50
2023-02-28T05:48:35.429Z,13.13
2023-02-28T05:51:03.547Z,13.15
2023-02-28T05:53:30.436Z,14.02
2023-02-28T05:55:57.521Z,12.68
2023-02-28T05:58:26.467Z,12.32
2023-02-28T06:00:53.527Z,12.95
2023-02-28T06:03:20.275Z,14.38
2023-02-28T06:05:47.116Z,13.85
2023-02-28T06:08:14.181Z,13.82
2023-02-28T06:10:40.944Z,13.23
2023-02-28T06:13:08.011Z,13.90
2023-02-28T06:15:34.932Z,13.40
2023-02-28T06:18:02.018Z,14.73
2023-02-28T06:20:31.631Z,14.05
2023-02-28T06:23:01.563Z,14.45
2023-02-28T06:25:28.448Z,13.82
2023-02-28T06:27:55.744Z,13.88
2023-02-28T06:30:26.251Z,14.55
2023-02-28T06:32:54.048Z,13.10
2023-02-28T06:35:20.985Z,13.57
2023-02-28T06:37:48.252Z,13.63
2023-02-28T06:40:15.281Z,13.57
2023-02-28T06:42:42.502Z,13.48
2023-02-28T06:45:10.665Z,14.18
2023-02-28T06:47:39.123Z,13.68
2023-02-28T06:50:06.507Z,14.23
2023-02-28T06:52:33.828Z,13.13
2023-02-28T06:55:04.001Z,13.68
2023-02-28T06:57:34.596Z,13.35
2023-02-28T07:00:01.975Z,14.90
2023-02-28T07:02:29.124Z,14.55
2023-02-28T07:04:56.659Z,14.57
2023-02-28T07:07:23.765Z,14.98
2023-02-28T07:09:50.504Z,13.57
2023-02-28T07:12:17.610Z,14.63
2023-02-28T07:14:44.335Z,14.07
2023-02-28T07:17:13.018Z,15.20
2023-02-28T07:19:40.338Z,14.82
2023-02-28T07:22:07.821Z,15.05
2023-02-28T07:24:34.662Z,15.05
2023-02-28T07:27:02.517Z,15.45
2023-02-28T07:29:29.569Z,16.50
2023-02-28T07:31:57.040Z,15.82
2023-02-28T07:34:23.905Z,16.13
2023-02-28T07:36:54.598Z,15.90
2023-02-28T07:39:22.281Z,16.63
2023-02-28T07:41:49.447Z,14.98
2023-02-28T07:44:16.205Z,16.55
2023-02-28T07:46:43.354Z,17.05
2023-02-28T07:49:10.160Z,15.52
2023-02-28T07:51:37.397Z,16.42
2023-02-28T07:54:04.404Z,16.02
2023-02-28T07:56:31.802Z,16.25
2023-02-28T07:58:58.840Z,16.17
2023-02-28T08:01:26.206Z,15.18
2023-02-28T08:03:53.070Z,13.43
2023-02-28T08:06:22.605Z,15.40
2023-02-28T08:08:49.626Z,15.20
2023-02-28T08:11:17.252Z,14.55
2023-02-28T08:13:45.117Z,13.75
2023-02-28T08:16:15.382Z,15.00
2023-02-28T08:18:42.291Z,14.20
2023-02-28T08:21:10.125Z,16.17
2023-02-28T08:23:37.105Z,16.05
2023-02-28T08:26:04.759Z,15.90
2023-02-28T08:28:31.590Z,16.13
2023-02-28T08:30:58.724Z,15.15
2023-02-28T08:33:25.702Z,15.43
2023-02-28T08:35:56.547Z,14.55
2023-02-28T08:38:23.883Z,17.30
2023-02-28T08:40:50.978Z,16.08
2023-02-28T08:43:17.882Z,15.68
2023-02-28T08:45:45.047Z,16.60
2023-02-28T08:48:11.862Z,17.13
2023-02-28T08:50:38.909Z,17.90
2023-02-28T08:53:05.678Z,18.58
2023-02-28T08:55:32.728Z,17.60
2023-02-28T08:57:59.568Z,20.17
2023-02-28T09:00:26.647Z,21.17
2023-02-28T09:02:53.541Z,24.25
2023-02-28T09:05:20.634Z,25.30
2023-02-28T09:07:47.379Z,25.90
2023-02-28T09:10:14.516Z,25.33
2023-02-28T09:12:41.256Z,26.48
2023-02-28T09:15:08.891Z,28.05
2023-02-28T09:17:35.700Z,27.02
2023-02-28T09:20:02.729Z,25.25
2023-02-28T09:22:29.571Z,25.98
2023-02-28T09:24:56.632Z,27.58
2023-02-28T09:27:23.367Z,25.15
2023-02-28T09:29:50.562Z,23.52
2023-02-28T09:32:19.099Z,24.60
2023-02-28T09:34:46.319Z,23.88
2023-02-28T09:37:13.065Z,24.20
2023-02-28T09:39:40.112Z,23.27
2023-02-28T09:42:08.724Z,21.88
2023-02-28T09:44:41.273Z,22.25
2023-02-28T09:47:16.170Z,21.38
2023-02-28T09:49:46.735Z,20.52
2023-02-28T09:52:19.010Z,19.60
2023-02-28T09:54:46.208Z,19.73
2023-02-28T09:57:36.046Z,19.25
2023-02-28T10:00:19.400Z,18.80
2023-02-28T10:02:54.968Z,17.10
2023-02-28T10:05:24.695Z,15.88
2023-02-28T10:07:59.968Z,16.83
2023-02-28T10:10:39.444Z,15.70
2023-02-28T10:13:14.299Z,14.10
2023-02-28T10:15:41.587Z,17.17
2023-02-28T10:18:12.863Z,16.17
2023-02-28T10:20:41.219Z,15.63
2023-02-28T10:23:13.352Z,13.98
2023-02-28T10:25:40.600Z,14.32
2023-02-28T10:28:14.789Z,14.75
2023-02-28T10:30:49.850Z,13.73
2023-02-28T10:33:23.656Z,14.20
2023-02-28T10:35:51.506Z,14.00
2023-02-28T10:38:21.284Z,15.55
2023-02-28T10:40:48.438Z,14.77
2023-02-28T10:43:19.247Z,13.52
2023-02-28T10:46:09.536Z,13.02
2023-02-28T10:48:45.082Z,12.57
2023-02-28T10:51:13.512Z,12.55
2023-02-28T10:54:00.994Z,14.38
2023-02-28T10:56:28.968Z,13.23
2023-02-28T10:59:31.416Z,12.45
2023-02-28T11:01:58.677Z,12.90
2023-02-28T11:04:30.212Z,12.27
2023-02-28T11:07:01.804Z,12.35
2023-02-28T11:09:32.806Z,11.55
2023-02-28T11:11:59.913Z,10.65
2023-02-28T11:14:28.676Z,11.90
2023-02-28T11:16:55.967Z,11.98
2023-02-28T11:19:39.092Z,10.65
2023-02-28T11:22:06.161Z,12.68
2023-02-28T11:24:36.534Z,11.40
2023-02-28T11:27:03.862Z,11.32
2023-02-28T11:29:32.311Z,10.73
2023-02-28T11:32:05.456Z,10.35
2023-02-28T11:34:32.892Z,10.85
2023-02-28T11:37:00.246Z,10.60
2023-02-28T11:39:27.733Z,10.80
2023-02-28T11:42:33.363Z,9.57
2023-02-28T11:45:13.001Z,10.48
2023-02-28T11:47:55.090Z,9.15
2023-02-28T11:50:48.080Z,10.07
2023-02-28T11:53:24.231Z,9.70
2023-02-28T11:55:57.077Z,9.68
2023-02-28T11:58:42.183Z,9.63
2023-02-28T12:01:25.249Z,9.37
2023-02-28T12:04:18.474Z,8.98
2023-02-28T12:07:10.300Z,11.43
2023-02-28T12:09:42.775Z,9.73
2023-02-28T12:12:32.854Z,9.35
2023-02-28T12:15:33.941Z,10.18
2023-02-28T12:18:11.216Z,10.30
2023-02-28T12:20:47.580Z,9.48
2023-02-28T12:23:23.316Z,9.73
2023-02-28T12:25:53.609Z,9.68
2023-02-28T12:28:23.164Z,9.70
2023-02-28T12:31:01.217Z,10.07
2023-02-28T12:33:33.694Z,9.73
2023-02-28T12:36:02.137Z,8.88
2023-02-28T12:38:48.325Z,10.38
2023-02-28T12:42:11.045Z,9.00
2023-02-28T12:44:46.144Z,8.98
2023-02-28T12:47:17.752Z,9.65
2023-02-28T12:49:49.111Z,9.20
2023-02-28T12:52:18.808Z,8.32
2023-02-28T12:54:56.144Z,8.32
2023-02-28T12:57:33.219Z,8.98
2023-02-28T13:00:06.292Z,9.52
2023-02-28T13:03:04.520Z,9.98
2023-02-28T13:05:46.283Z,9.50
2023-02-28T13:08:31.995Z,9.32
2023-02-28T13:10:58.761Z,9.50
2023-02-28T13:13:32.905Z,8.85
2023-02-28T13:16:03.524Z,9.00
2023-02-28T13:18:41.177Z,8.45
2023-02-28T13:21:29.949Z,8.43
2023-02-28T13:23:59.914Z,8.65
2023-02-28T13:26:52.952Z,9.77
2023-02-28T13:29:29.481Z,9.23
2023-02-28T13:32:09.203Z,8.57
2023-02-28T13:34:43.291Z,9.15
2023-02-28T13:37:22.483Z,9.10
2023-02-28T13:39:50.262Z,8.65
2023-02-28T13:42:23.094Z,10.10
2023-02-28T13:45:02.475Z,9.32
2023-02-28T13:47:29.985Z,10.00
2023-02-28T13:50:26.529Z,10.93
2023-02-28T13:56:08.717Z,10.43
2023-02-28T13:58:56.442Z,10.70
2023-02-28T14:01:40.147Z,10.93
2023-02-28T14:04:28.610Z,10.70
2023-02-28T14:06:55.943Z,10.70
2023-02-28T14:09:31.740Z,11.65
2023-02-28T14:11:59.106Z,11.32
2023-02-28T14:14:38.126Z,12.00
2023-02-28T14:17:10.655Z,10.77
2023-02-28T14:19:38.119Z,11.85
2023-02-28T14:22:43.566Z,11.82
2023-02-28T14:25:28.711Z,12.10
2023-02-28T14:28:12.203Z,11.75
2023-02-28T14:30:51.751Z,12.00
2023-02-28T14:33:31.014Z,12.60
2023-02-28T14:36:05.730Z,11.55
2023-02-28T14:38:47.508Z,11.98
2023-02-28T14:41:23.481Z,13.38
2023-02-28T14:43:52.702Z,11.80
2023-02-28T14:46:20.283Z,11.00
2023-02-28T14:48:48.627Z,13.52
2023-02-28T14:51:19.402Z,11.70
2023-02-28T14:53:46.539Z,12.23
2023-02-28T14:56:24.851Z,12.95
2023-02-28T14:58:56.055Z,14.00
2023-02-28T15:01:23.633Z,12.85
2023-02-28T15:03:58.639Z,12.80
2023-02-28T15:06:26.811Z,12.25
2023-02-28T15:09:18.003Z,12.60
2023-02-28T15:11:47.480Z,12.77
2023-02-28T15:14:20.424Z,12.85
2023-02-28T15:16:50.691Z,12.18
2023-02-28T15:19:26.081Z,12.43
2023-02-28T15:22:01.374Z,12.07
2023-02-28T15:24:32.785Z,13.38
2023-02-28T15:27:01.189Z,13.18
2023-02-28T15:29:29.711Z,12.07
2023-02-28T15:32:03.643Z,12.35
2023-02-28T15:34:45.881Z,12.55
2023-02-28T15:37:32.120Z,11.73
2023-02-28T15:40:32.878Z,12.35
2023-02-28T15:43:16.742Z,13.13
2023-02-28T15:45:54.269Z,11.77
2023-02-28T15:48:22.555Z,11.82
2023-02-28T15:50:58.115Z,12.75
2023-02-28T15:53:33.612Z,11.88
2023-02-28T15:56:06.355Z,13.10
2023-02-28T15:58:33.779Z,12.73
2023-02-28T16:01:02.671Z,12.75
2023-02-28T16:03:45.427Z,12.43
2023-02-28T16:06:35.586Z,13.20
2023-02-28T16:09:02.691Z,13.15
2023-02-28T16:11:30.292Z,11.40
2023-02-28T16:13:57.316Z,11.93
2023-02-28T16:16:25.390Z,11.75
2023-02-28T16:18:52.340Z,12.07
2023-02-28T16:21:19.458Z,12.02
2023-02-28T16:23:46.269Z,10.95
2023-02-28T16:26:19.850Z,12.32
2023-02-28T16:28:46.690Z,11.95
2023-02-28T16:31:17.440Z,12.27
2023-02-28T16:33:45.754Z,11.90
2023-02-28T16:36:17.745Z,11.80
2023-02-28T16:38:44.653Z,12.75
2023-02-28T16:41:17.598Z,12.77
2023-02-28T16:43:44.961Z,12.38
2023-02-28T16:46:13.779Z,11.38
2023-02-28T16:48:41.560Z,12.63
2023-02-28T16:51:17.711Z,11.90
2023-02-28T16:53:44.901Z,12.20
2023-02-28T16:56:22.638Z,12.10
2023-02-28T16:58:49.682Z,11.82
2023-02-28T17:01:17.272Z,12.13
2023-02-28T17:03:44.149Z,12.70
2023-02-28T17:06:20.314Z,11.57
2023-02-28T17:08:47.364Z,11.98
2023-02-28T17:11:14.524Z,11.95
2023-02-28T17:13:41.305Z,12.98
2023-02-28T17:16:30.818Z,13.27
2023-02-28T17:18:59.752Z,12.68
2023-02-28T17:21:26.857Z,13.75
2023-02-28T17:23:53.650Z,14.98
2023-02-28T17:26:21.056Z,14.27
2023-02-28T17:28:49.011Z,14.68
2023-02-28T17:31:16.223Z,14.50
2023-02-28T17:33:43.118Z,14.70
2023-02-28T17:36:17.368Z,15.38
2023-02-28T17:38:44.228Z,15.35
2023-02-28T17:41:11.966Z,14.65
2023-02-28T17:43:38.733Z,15.18
2023-02-28T17:46:06.494Z,14.90
2023-02-28T17:48:34.162Z,15.70
2023-02-28T17:51:01.266Z,16.05
2023-02-28T17:53:28.251Z,18.27
2023-02-28T17:55:55.338Z,17.48
2023-02-28T17:58:22.187Z,18.48
2023-02-28T18:00:54.678Z,20.15
2023-02-28T18:03:21.891Z,22.23
2023-02-28T18:05:49.165Z,21.80
2023-02-28T18:08:15.986Z,23.23
2023-02-28T18:10:43.146Z,23.67
2023-02-28T18:13:13.497Z,23.05
2023-02-28T18:15:40.762Z,24.52
2023-02-28T18:18:07.734Z,26.58
2023-02-28T18:20:35.470Z,26.00
2023-02-28T18:23:02.378Z,30.08
2023-02-28T18:25:29.646Z,28.75
2023-02-28T18:27:59.335Z,29.23
2023-02-28T18:30:31.484Z,29.52
2023-02-28T18:32:59.119Z,28.15
2023-02-28T18:35:35.396Z,29.60
2023-02-28T18:38:15.010Z,27.00
2023-02-28T18:40:42.469Z,29.95
2023-02-28T18:43:09.585Z,28.90
2023-02-28T18:45:38.552Z,29.85
2023-02-28T18:48:05.855Z,31.60
2023-02-28T18:50:32.954Z,29.08
2023-02-28T18:52:59.878Z,29.35
2023-02-28T18:55:27.903Z,30.77
2023-02-28T18:57:54.747Z,33.05
2023-02-28T19:00:22.729Z,33.60
2023-02-28T19:02:50.623Z,34.95
2023-02-28T19:05:18.524Z,35.10
2023-02-28T19:07:46.012Z,36.97
2023-02-28T19:10:13.565Z,37.50
2023-02-28T19:12:42.346Z,38.80
2023-02-28T19:15:09.827Z,39.42
2023-02-28T19:17:36.850Z,41.60
2023-02-28T19:20:04.999Z,41.25
2023-02-28T19:22:32.025Z,43.30
2023-02-28T19:24:59.230Z,42.03
2023-02-28T19:27:26.044Z,44.63
2023-02-28T19:29:53.301Z,44.85
2023-02-28T19:32:20.490Z,45.65
2023-02-28T19:34:47.892Z,45.33
2023-02-28T19:37:14.733Z,47.13
2023-02-28T19:39:45.305Z,48.92
2023-02-28T19:42:14.027Z,46.95
2023-02-28T19:44:41.389Z,49.55
2023-02-28T19:47:08.333Z,48.25
2023-02-28T19:49:35.449Z,48.15
2023-02-28T19:52:02.973Z,50.15
2023-02-28T19:54:30.452Z,50.53
2023-02-28T19:56:58.474Z,53.78
2023-02-28T19:59:31.324Z,52.28
2023-02-28T20:02:05.723Z,52.00
2023-02-28T20:04:32.877Z,53.05
2023-02-28T20:06:59.731Z,55.85
2023-02-28T20:09:31.003Z,56.78
2023-02-28T20:11:59.500Z,54.78
2023-02-28T20:14:26.816Z,53.80
2023-02-28T20:16:54.337Z,53.33
2023-02-28T20:19:22.624Z,55.17
2023-02-28T20:21:49.418Z,54.50
2023-02-28T20:24:16.761Z,54.33
2023-02-28T20:26:43.666Z,54.97
2023-02-28T20:29:11.810Z,56.05
2023-02-28T20:31:38.722Z,58.63
2023-02-28T20:34:05.916Z,57.35
2023-02-28T20:36:33.041Z,57.00
2023-02-28T20:39:00.610Z,55.60
2023-02-28T20:41:27.463Z,55.17
2023-02-28T20:43:55.768Z,56.72
2023-02-28T20:46:22.728Z,56.05
2023-02-28T20:48:49.904Z,55.97
2023-02-28T20:51:16.845Z,55.33
2023-02-28T20:53:43.933Z,56.03
2023-02-28T20:56:13.742Z,58.80
2023-02-28T20:58:40.957Z,55.33
2023-02-28T21:01:18.553Z,53.50
2023-02-28T21:03:49.454Z,57.47
2023-02-28T21:06:20.296Z,55.35
2023-02-28T21:08:47.454Z,55.22
2023-02-28T21:11:19.037Z,55.53
2023-02-28T21:13:46.612Z,55.70
2023-02-28T21:16:15.055Z,55.00
2023-02-28T21:18:42.305Z,54.00
2023-02-28T21:21:17.005Z,56.45
2023-02-28T21:23:46.600Z,56.45
2023-02-28T21:26:15.440Z,56.80
2023-02-28T21:28:44.274Z,57.30
2023-02-28T21:31:13.406Z,55.67
2023-02-28T21:33:40.706Z,57.17
2023-02-28T21:36:10.039Z,58.20
2023-02-28T21:38:37.918Z,56.38
2023-02-28T21:41:09.329Z,58.80
2023-02-28T21:43:36.413Z,60.53
2023-02-28T21:46:08.081Z,60.20
2023-02-28T21:48:35.250Z,59.38
2023-02-28T21:51:06.648Z,62.15
2023-02-28T21:53:35.891Z,63.30
2023-02-28T21:56:16.596Z,61.05
2023-02-28T21:58:43.709Z,61.78
2023-02-28T22:01:12.264Z,59.35
2023-02-28T22:03:39.380Z,63.08
2023-02-28T22:06:26.424Z,59.55
2023-02-28T22:08:56.418Z,60.53
2023-02-28T22:11:23.746Z,64.20
2023-02-28T22:13:56.163Z,61.92
2023-02-28T22:16:23.858Z,62.63
2023-02-28T22:18:50.940Z,63.10
2023-02-28T22:21:18.145Z,67.10
2023-02-28T22:23:45.550Z,63.17
2023-02-28T22:26:13.942Z,64.55
2023-02-28T22:28:41.140Z,65.00
2023-02-28T22:31:18.141Z,64.25
2023-02-28T22:33:45.475Z,66.60
2023-02-28T22:36:13.659Z,67.45
2023-02-28T22:38:41.799Z,67.47
2023-02-28T22:41:08.670Z,66.25
2023-02-28T22:43:35.852Z,70.70
2023-02-28T22:46:04.027Z,67.78
2023-02-28T22:48:31.300Z,67.70
2023-02-28T22:51:05.427Z,69.05
2023-02-28T22:53:33.614Z,68.93
2023-02-28T22:56:00.363Z,69.20
2023-02-28T22:58:27.572Z,69.07
2023-02-28T23:00:57.911Z,72.03
2023-02-28T23:03:25.594Z,70.50
2023-02-28T23:05:52.798Z,73.00
2023-02-28T23:08:23.344Z,70.78
2023-02-28T23:10:50.753Z,70.70
2023-02-28T23:13:18.707Z,75.38
2023-02-28T23:15:45.993Z,71.50
2023-02-28T23:18:13.262Z,76.13
2023-02-28T23:20:40.225Z,72.70
2023-02-28T23:23:07.335Z,74.90
2023-02-28T23:25:34.134Z,73.18
2023-02-28T23:28:01.203Z,75.30
2023-02-28T23:30:27.994Z,76.47
2023-02-28T23:32:55.344Z,74.10
2023-02-28T23:35:22.645Z,74.30
2023-02-28T23:37:49.837Z,74.07
2023-02-28T23:40:16.975Z,71.97
2023-02-28T23:42:44.930Z,70.80
2023-02-28T23:45:11.726Z,72.05
2023-02-28T23:47:38.801Z,69.95
2023-02-28T23:50:05.989Z,68.40
2023-02-28T23:52:33.101Z,69.78
2023-02-28T23:55:00.923Z,70.05
2023-02-28T23:57:29.724Z,67.82
2023-02-28T23:59:56.650Z,67.35
